createdAt,value
2018-01-22T00:01:57.535Z,83.51
2018-01-22T00:04:23.862Z,83.30
2018-01-22T00:06:50.029Z,83.46
2018-01-22T00:09:16.191Z,83.44
2018-01-22T00:11:42.399Z,83.28
2018-01-22T00:14:08.617Z,83.35
2018-01-22T00:16:34.899Z,82.93
2018-01-22T00:19:01.094Z,83.39
2018-01-22T00:21:27.426Z,83.57
2018-01-22T00:23:53.982Z,83.77
2018-01-22T00:26:20.158Z,83.70
2018-01-22T00:28:46.375Z,83.50
2018-01-22T00:31:12.595Z,83.60
2018-01-22T00:33:38.891Z,83.34
2018-01-22T00:36:05.087Z,83.50
2018-01-22T00:38:31.347Z,83.40
2018-01-22T00:40:57.643Z,83.51
2018-01-22T00:43:23.923Z,83.90
2018-01-22T00:45:50.182Z,84.47
2018-01-22T00:48:16.407Z,84.35
2018-01-22T00:50:42.744Z,83.99
2018-01-22T00:53:08.967Z,84.16
2018-01-22T00:55:35.274Z,84.41
2018-01-22T00:58:01.483Z,84.18
2018-01-22T01:00:27.748Z,83.96
2018-01-22T01:02:54.063Z,83.88
2018-01-22T01:05:20.271Z,84.21
2018-01-22T01:07:46.423Z,84.31
2018-01-22T01:10:12.644Z,84.39
2018-01-22T01:12:38.895Z,84.93
2018-01-22T01:15:05.086Z,85.11
2018-01-22T01:17:31.334Z,85.31
2018-01-22T01:19:57.519Z,85.06
2018-01-22T01:22:23.770Z,84.86
2018-01-22T01:24:50.046Z,85.06
2018-01-22T01:27:16.263Z,85.14
2018-01-22T01:29:42.475Z,85.17
2018-01-22T01:32:09.087Z,84.87
2018-01-22T01:34:35.258Z,85.05
2018-01-22T01:37:01.459Z,85.13
2018-01-22T01:39:27.798Z,84.77
2018-01-22T01:41:53.995Z,84.96
2018-01-22T01:44:20.239Z,85.06
2018-01-22T01:46:46.532Z,85.22
2018-01-22T01:49:12.819Z,85.33
2018-01-22T01:51:39.052Z,85.43
2018-01-22T01:54:05.323Z,85.42
2018-01-22T01:56:31.543Z,85.17
2018-01-22T01:58:57.759Z,85.25
2018-01-22T02:01:23.935Z,84.96
2018-01-22T02:03:50.193Z,85.17
2018-01-22T02:06:16.388Z,85.33
2018-01-22T03:17:14.378Z,84.62
2018-01-22T03:19:40.577Z,84.55
2018-01-22T03:22:06.773Z,84.55
2018-01-22T03:24:33.022Z,84.43
2018-01-22T03:26:59.287Z,84.56
2018-01-22T03:29:25.505Z,84.91
2018-01-22T03:31:51.846Z,84.81
2018-01-22T03:34:18.063Z,84.65
2018-01-22T03:36:44.270Z,84.49
2018-01-22T03:39:10.542Z,84.41
2018-01-22T03:41:36.810Z,84.05
2018-01-22T03:44:03.015Z,84.31
2018-01-22T04:17:10.799Z,83.68
2018-01-22T04:19:36.966Z,83.42
2018-01-22T04:22:03.173Z,83.63
2018-01-22T04:24:29.417Z,83.52
2018-01-22T04:26:55.638Z,83.38
2018-01-22T04:29:21.931Z,83.21
2018-01-22T04:31:48.123Z,83.31
2018-01-22T04:34:14.347Z,83.11
2018-01-22T04:36:40.602Z,83.33
2018-01-22T04:39:06.804Z,83.18
2018-01-22T04:41:33.221Z,82.74
2018-01-22T04:43:59.503Z,82.81
2018-01-22T04:46:25.759Z,82.98
2018-01-22T04:48:51.974Z,83.18
2018-01-22T04:51:18.247Z,83.17
2018-01-22T04:53:44.446Z,83.05
2018-01-22T04:56:10.598Z,82.84
2018-01-22T04:58:36.875Z,82.75
2018-01-22T05:01:03.166Z,82.82
2018-01-22T05:03:29.687Z,82.99
2018-01-22T06:05:45.246Z,82.70
2018-01-22T06:08:11.411Z,82.38
2018-01-22T06:10:37.806Z,82.11
2018-01-22T06:13:04.071Z,82.13
2018-01-22T06:15:30.484Z,81.97
2018-01-22T06:17:56.696Z,81.79
2018-01-22T06:20:22.898Z,81.85
2018-01-22T06:22:49.110Z,81.51
2018-01-22T06:25:15.300Z,81.50
2018-01-22T06:27:41.515Z,81.46
2018-01-22T06:30:07.735Z,81.15
2018-01-22T06:32:33.899Z,80.51
2018-01-22T06:35:00.122Z,80.45
2018-01-22T06:37:26.382Z,80.46
2018-01-22T06:39:52.622Z,80.53
2018-01-22T06:42:18.886Z,80.60
2018-01-22T06:44:45.189Z,80.18
2018-01-22T06:47:11.455Z,79.95
2018-01-22T06:49:37.734Z,79.65
2018-01-22T06:52:04.220Z,79.79
2018-01-22T06:54:30.754Z,79.26
2018-01-22T06:56:56.965Z,78.99
2018-01-22T06:59:23.238Z,78.82
2018-01-22T07:01:49.453Z,78.58
2018-01-22T07:04:15.651Z,78.30
2018-01-22T07:06:41.879Z,78.42
2018-01-22T07:09:08.182Z,77.95
2018-01-22T07:11:34.363Z,77.57
2018-01-22T07:14:00.696Z,77.55
2018-01-22T07:16:26.956Z,77.02
2018-01-22T07:18:53.259Z,76.59
2018-01-22T07:21:19.580Z,75.67
2018-01-22T07:23:45.785Z,76.05
2018-01-22T08:17:15.995Z,70.19
2018-01-22T08:19:42.155Z,70.50
2018-01-22T08:22:08.383Z,70.67
2018-01-22T08:24:34.707Z,70.99
2018-01-22T08:27:00.944Z,68.55
2018-01-22T08:29:27.278Z,68.61
2018-01-22T08:31:53.483Z,67.22
2018-01-22T08:34:19.716Z,68.97
2018-01-22T08:36:46.039Z,69.29
2018-01-22T08:39:12.335Z,69.29
2018-01-22T08:41:38.500Z,67.66
2018-01-22T08:44:04.741Z,66.55
2018-01-22T08:46:30.902Z,67.11
2018-01-22T08:48:57.111Z,67.44
2018-01-22T08:51:23.395Z,67.54
2018-01-22T08:53:49.630Z,67.19
2018-01-22T08:56:15.913Z,66.98
2018-01-22T08:58:42.226Z,66.85
2018-01-22T09:01:08.396Z,67.21
2018-01-22T09:03:34.574Z,66.71
2018-01-22T09:06:00.802Z,66.75
2018-01-22T09:08:27.134Z,66.99
2018-01-22T09:10:53.335Z,66.24
2018-01-22T09:13:19.590Z,66.56
2018-01-22T09:15:45.859Z,66.46
2018-01-22T09:18:12.055Z,65.79
2018-01-22T09:20:38.349Z,66.20
2018-01-22T09:23:04.663Z,66.11
2018-01-22T09:25:30.831Z,66.58
2018-01-22T09:27:57.062Z,65.47
2018-01-22T09:30:23.290Z,65.21
2018-01-22T09:32:49.518Z,65.39
2018-01-22T09:35:15.699Z,66.60
2018-01-22T09:37:41.986Z,67.00
2018-01-22T09:40:08.200Z,67.30
2018-01-22T09:42:34.442Z,64.98
2018-01-22T09:45:00.711Z,65.12
2018-01-22T09:47:27.038Z,64.11
2018-01-22T09:49:53.236Z,65.68
2018-01-22T09:52:19.555Z,64.83
2018-01-22T09:54:45.771Z,63.87
2018-01-22T09:57:12.007Z,64.68
2018-01-22T09:59:38.243Z,64.33
2018-01-22T10:02:04.426Z,65.27
2018-01-22T10:04:30.686Z,63.86
2018-01-22T10:06:56.967Z,63.35
2018-01-22T10:09:23.219Z,64.27
2018-01-22T10:11:49.527Z,64.25
2018-01-22T10:14:15.711Z,64.37
2018-01-22T10:16:41.947Z,63.76
2018-01-22T10:19:08.239Z,64.26
2018-01-22T10:21:34.498Z,63.28
2018-01-22T10:24:00.948Z,62.86
2018-01-22T10:26:27.500Z,62.16
2018-01-22T10:28:53.670Z,61.76
2018-01-22T10:31:19.984Z,61.91
2018-01-22T10:33:46.294Z,61.24
2018-01-22T10:36:12.508Z,61.66
2018-01-22T10:38:38.760Z,61.55
2018-01-22T10:41:05.014Z,61.24
2018-01-22T10:43:31.242Z,61.82
2018-01-22T10:45:57.498Z,64.00
2018-01-22T10:48:23.807Z,62.01
2018-01-22T10:50:49.999Z,62.42
2018-01-22T10:53:16.286Z,63.20
2018-01-22T10:55:42.523Z,62.27
2018-01-22T10:58:08.803Z,61.63
2018-01-22T11:00:35.078Z,62.08
2018-01-22T11:03:01.348Z,63.97
2018-01-22T11:05:27.560Z,62.28
2018-01-22T11:07:53.843Z,62.59
2018-01-22T11:10:20.117Z,62.61
2018-01-22T11:12:46.278Z,62.76
2018-01-22T11:15:12.546Z,64.71
2018-01-22T11:17:38.905Z,62.60
2018-01-22T11:20:05.178Z,61.91
2018-01-22T11:22:31.423Z,62.24
2018-01-22T11:24:57.671Z,62.41
2018-01-22T11:27:23.925Z,61.30
2018-01-22T11:29:50.259Z,62.55
2018-01-22T11:32:16.559Z,61.75
2018-01-22T11:34:42.767Z,62.58
2018-01-22T11:37:09.039Z,62.26
2018-01-22T11:39:35.369Z,62.11
2018-01-22T11:42:01.552Z,61.71
2018-01-22T11:44:27.864Z,62.66
2018-01-22T11:46:54.122Z,61.59
2018-01-22T11:49:20.389Z,61.92
2018-01-22T11:51:46.656Z,62.23
2018-01-22T11:54:12.851Z,61.54
2018-01-22T11:56:39.080Z,62.02
2018-01-22T11:59:05.379Z,63.16
2018-01-22T12:01:31.563Z,61.56
2018-01-22T12:03:57.734Z,61.84
2018-01-22T12:06:23.951Z,62.29
2018-01-22T12:08:50.195Z,64.02
2018-01-22T12:11:16.506Z,62.60
2018-01-22T12:13:42.788Z,60.34
2018-01-22T12:16:09.056Z,60.98
2018-01-22T12:18:35.487Z,61.50
2018-01-22T12:21:01.720Z,61.57
2018-01-22T12:23:27.983Z,60.19
2018-01-22T12:25:54.476Z,60.77
2018-01-22T12:28:20.788Z,60.98
2018-01-22T12:30:47.025Z,61.96
2018-01-22T12:33:13.238Z,62.16
2018-01-22T12:35:39.527Z,59.58
2018-01-22T12:38:05.727Z,61.55
2018-01-22T12:40:31.971Z,60.86
2018-01-22T12:42:58.219Z,61.42
2018-01-22T12:45:24.446Z,60.99
2018-01-22T12:47:51.149Z,61.00
2018-01-22T12:50:17.427Z,60.92
2018-01-22T12:52:43.594Z,61.19
2018-01-22T12:55:09.797Z,60.91
2018-01-22T12:57:36.071Z,62.46
2018-01-22T13:00:02.445Z,62.15
2018-01-22T13:02:28.696Z,61.53
2018-01-22T13:04:54.912Z,62.62
2018-01-22T13:07:21.255Z,60.97
2018-01-22T13:09:47.675Z,60.49
2018-01-22T13:12:13.955Z,61.60
2018-01-22T13:14:40.303Z,59.83
2018-01-22T13:17:06.525Z,61.77
2018-01-22T13:19:32.759Z,60.81
2018-01-22T13:21:59.091Z,59.96
2018-01-22T13:24:25.382Z,60.11
2018-01-22T13:26:51.628Z,61.02
2018-01-22T13:29:17.830Z,60.56
2018-01-22T13:31:44.131Z,60.74
2018-01-22T13:34:12.237Z,60.14
2018-01-22T13:36:39.977Z,60.85
2018-01-22T13:39:06.975Z,60.41
2018-01-22T13:41:34.643Z,60.78
2018-01-22T13:44:04.314Z,61.14
2018-01-22T13:46:31.005Z,62.50
2018-01-22T13:48:57.252Z,61.14
2018-01-22T13:51:23.469Z,62.75
2018-01-22T13:53:49.864Z,61.50
2018-01-22T13:56:16.673Z,60.17
2018-01-22T13:58:43.882Z,61.07
2018-01-22T14:01:10.418Z,63.51
2018-01-22T14:03:36.774Z,62.10
2018-01-22T14:06:03.726Z,63.67
2018-01-22T14:08:30.924Z,62.58
2018-01-22T14:10:57.459Z,65.79
2018-01-22T14:13:24.240Z,63.27
2018-01-22T14:15:50.728Z,60.83
2018-01-22T14:18:16.991Z,60.83
2018-01-22T14:20:43.375Z,62.03
2018-01-22T14:23:09.655Z,61.85
2018-01-22T14:25:35.963Z,62.74
2018-01-22T14:28:02.264Z,63.33
2018-01-22T14:30:28.634Z,61.59
2018-01-22T14:32:55.121Z,61.96
2018-01-22T14:35:21.413Z,61.76
2018-01-22T14:37:47.767Z,63.64
2018-01-22T14:40:14.068Z,62.52
2018-01-22T14:42:40.398Z,64.35
2018-01-22T14:45:06.639Z,63.02
2018-01-22T14:47:32.961Z,62.18
2018-01-22T14:49:59.320Z,65.71
2018-01-22T14:52:25.530Z,61.66
2018-01-22T14:54:51.905Z,64.51
2018-01-22T14:57:18.431Z,65.18
2018-01-22T14:59:44.651Z,62.97
2018-01-22T15:02:10.943Z,61.94
2018-01-22T15:04:37.213Z,63.42
2018-01-22T15:17:47.962Z,63.13
2018-01-22T15:20:14.330Z,62.90
2018-01-22T15:22:41.063Z,66.01
2018-01-22T16:06:07.438Z,64.41
2018-01-22T16:08:33.984Z,66.23
2018-01-22T16:11:00.710Z,66.66
2018-01-22T16:13:27.497Z,68.33
2018-01-22T16:15:56.975Z,64.62
2018-01-22T16:18:24.104Z,64.93
2018-01-22T16:20:50.474Z,66.75
2018-01-22T16:23:17.089Z,66.40
2018-01-22T16:25:43.442Z,65.75
2018-01-22T16:28:09.618Z,64.84
2018-01-22T16:30:35.892Z,63.37
2018-01-22T16:33:02.095Z,68.46
2018-01-22T16:35:28.364Z,65.17
2018-01-22T16:37:54.595Z,63.21
2018-01-22T16:40:20.811Z,64.15
2018-01-22T16:42:47.027Z,64.62
2018-01-22T16:45:13.287Z,64.90
2018-01-22T17:17:11.694Z,62.87
2018-01-22T17:19:37.919Z,63.75
2018-01-22T17:22:04.115Z,63.45
2018-01-22T17:24:30.480Z,66.80
2018-01-22T17:26:56.647Z,66.58
2018-01-22T17:29:22.872Z,64.55
2018-01-22T17:31:49.105Z,63.08
2018-01-22T17:34:15.300Z,67.15
2018-01-22T17:36:41.508Z,65.05
2018-01-22T17:39:07.695Z,66.61
2018-01-22T17:41:33.910Z,63.35
2018-01-22T17:44:00.156Z,65.10
2018-01-22T17:46:26.677Z,65.75
2018-01-22T17:48:52.952Z,65.14
2018-01-22T17:51:19.464Z,66.88
2018-01-22T17:53:45.704Z,68.79
2018-01-22T17:56:11.982Z,66.15
2018-01-22T17:58:38.215Z,65.03
2018-01-22T18:01:04.423Z,67.63
2018-01-22T18:03:30.835Z,68.27
2018-01-22T18:05:57.105Z,67.98
2018-01-22T18:08:23.282Z,65.77
2018-01-22T18:10:49.491Z,69.14
2018-01-22T18:13:15.682Z,68.27
2018-01-22T18:15:41.917Z,66.48
2018-01-22T18:18:08.178Z,67.54
2018-01-22T18:20:34.900Z,68.21
2018-01-22T18:23:01.163Z,66.45
2018-01-22T18:25:27.419Z,69.75
2018-01-22T18:27:53.675Z,66.91
2018-01-22T18:30:19.864Z,67.13
2018-01-22T18:32:46.166Z,67.39
2018-01-22T18:35:12.495Z,68.33
2018-01-22T18:37:38.710Z,67.10
2018-01-22T18:40:04.967Z,66.33
2018-01-22T18:42:31.223Z,68.11
2018-01-22T18:44:57.492Z,66.74
2018-01-22T18:47:23.700Z,66.07
2018-01-22T18:49:57.046Z,68.52
2018-01-22T18:52:23.250Z,68.91
2018-01-22T18:54:49.524Z,67.39
2018-01-22T18:57:15.790Z,65.43
2018-01-22T18:59:42.012Z,68.53
2018-01-22T19:02:08.272Z,70.75
2018-01-22T19:04:34.455Z,67.13
2018-01-22T19:07:00.695Z,64.68
2018-01-22T19:09:26.973Z,67.16
2018-01-22T19:11:53.141Z,66.77
2018-01-22T19:14:19.355Z,66.57
2018-01-22T19:16:45.562Z,64.81
2018-01-22T19:19:11.756Z,65.91
2018-01-22T19:21:37.967Z,66.02
2018-01-22T19:24:04.194Z,66.63
2018-01-22T19:26:30.511Z,65.72
2018-01-22T19:28:56.802Z,67.04
2018-01-22T19:31:23.128Z,65.34
2018-01-22T19:33:49.363Z,69.25
2018-01-22T19:36:15.582Z,69.20
2018-01-22T19:38:41.803Z,69.04
2018-01-22T19:41:08.127Z,67.09
2018-01-22T20:17:29.302Z,65.56
2018-01-22T20:19:55.551Z,67.86
2018-01-22T20:22:21.735Z,68.21
2018-01-22T20:24:47.935Z,65.39
2018-01-22T20:27:14.140Z,65.23
2018-01-22T20:29:40.495Z,66.77
2018-01-22T20:32:06.788Z,67.28
2018-01-22T20:34:33.003Z,65.02
2018-01-22T20:36:59.239Z,67.90
2018-01-22T20:39:25.667Z,66.08
2018-01-22T20:41:51.933Z,67.62
2018-01-22T20:44:18.131Z,64.38
2018-01-22T20:46:44.447Z,65.41
2018-01-22T20:49:10.686Z,66.02
2018-01-22T20:51:36.898Z,66.79
2018-01-22T20:54:03.063Z,65.74
2018-01-22T20:56:29.386Z,65.91
2018-01-22T20:58:55.622Z,67.01
2018-01-22T21:01:21.863Z,68.22
2018-01-22T21:03:48.115Z,66.73
2018-01-22T21:06:14.327Z,65.03
2018-01-22T21:08:40.547Z,68.13
2018-01-22T21:11:06.752Z,66.19
2018-01-22T21:13:33.011Z,66.07
2018-01-22T21:15:59.191Z,65.95
2018-01-22T21:18:25.410Z,67.83
2018-01-22T21:20:51.662Z,71.17
2018-01-22T21:23:17.870Z,68.93
2018-01-22T21:25:44.044Z,66.96
2018-01-22T21:28:10.258Z,67.45
2018-01-22T21:30:36.501Z,69.77
2018-01-22T21:33:02.710Z,66.50
2018-01-22T21:35:28.935Z,67.22
2018-01-22T21:37:55.123Z,68.42
2018-01-22T21:40:21.338Z,67.69
2018-01-22T21:42:47.643Z,68.33
2018-01-22T21:45:13.803Z,68.48
2018-01-22T21:47:40.032Z,69.76
2018-01-22T21:50:06.260Z,68.39
2018-01-22T21:52:32.466Z,67.10
2018-01-22T21:54:58.665Z,69.39
2018-01-22T21:57:24.863Z,68.91
2018-01-22T21:59:51.146Z,69.63
2018-01-22T22:02:17.359Z,69.39
2018-01-22T22:04:43.579Z,66.71
2018-01-22T22:07:09.806Z,67.23
2018-01-22T22:09:36.002Z,69.77
2018-01-22T22:12:02.251Z,68.30
2018-01-22T22:14:28.482Z,69.17
2018-01-22T22:16:54.722Z,68.55
2018-01-22T22:19:20.927Z,68.27
2018-01-22T22:21:47.131Z,68.58
2018-01-22T22:24:13.378Z,66.85
2018-01-22T22:26:39.630Z,71.36
2018-01-22T22:29:05.793Z,67.91
2018-01-22T22:31:32.031Z,68.86
2018-01-22T22:33:58.211Z,66.74
2018-01-22T22:36:24.443Z,67.36
2018-01-22T22:38:50.664Z,65.85
2018-01-22T22:41:16.972Z,66.39
2018-01-22T22:43:43.227Z,66.19
2018-01-22T22:46:09.419Z,68.14
2018-01-22T22:48:35.587Z,70.59
2018-01-22T22:51:01.810Z,68.91
2018-01-22T22:53:27.982Z,69.21
2018-01-22T22:55:54.126Z,66.36
2018-01-22T22:58:20.379Z,65.01
2018-01-22T23:00:46.631Z,68.88
2018-01-22T23:03:12.826Z,63.87
2018-01-22T23:05:39.110Z,65.64
2018-01-22T23:08:05.298Z,66.14
2018-01-22T23:10:31.482Z,64.76
2018-01-22T23:12:57.721Z,65.30
2018-01-22T23:15:23.947Z,63.50
2018-01-22T23:17:50.126Z,64.92
2018-01-22T23:20:16.368Z,66.67
2018-01-22T23:22:42.551Z,67.48
2018-01-22T23:25:08.790Z,65.33
2018-01-22T23:27:34.990Z,62.68
2018-01-22T23:30:01.254Z,66.38
2018-01-22T23:32:27.474Z,66.50
2018-01-22T23:34:53.744Z,67.83
2018-01-22T23:37:19.949Z,63.76
2018-01-22T23:39:46.187Z,63.63
2018-01-22T23:42:12.403Z,66.80
2018-01-22T23:44:38.587Z,67.56
2018-01-22T23:47:04.810Z,63.62
2018-01-22T23:49:31.167Z,64.79
2018-01-22T23:51:57.366Z,63.71
2018-01-22T23:54:23.662Z,63.61
2018-01-22T23:56:49.947Z,69.77
2018-01-22T23:59:16.186Z,64.90
